sensor_id;sensor_type;location;lat;lon;timestamp;pressure;altitude;pressure_sealevel;temperature;humidity
47809;BME280;33573;38.790;-77.084;2023-06-26T00:01:41;100528.04;;;27.88;35.87
47809;BME280;33573;38.790;-77.084;2023-06-26T00:04:06;100525.76;;;27.74;36.09
47809;BME280;33573;38.790;-77.084;2023-06-26T00:06:32;100528.71;;;28.03;36.27
47809;BME280;33573;38.790;-77.084;2023-06-26T00:08:57;100525.26;;;27.77;36.34
47809;BME280;33573;38.790;-77.084;2023-06-26T00:11:23;100524.91;;;27.86;36.36
47809;BME280;33573;38.790;-77.084;2023-06-26T00:13:48;100525.76;;;27.80;36.28
47809;BME280;33573;38.790;-77.084;2023-06-26T00:16:13;100526.29;;;27.80;36.54
47809;BME280;33573;38.790;-77.084;2023-06-26T00:18:39;100527.31;;;27.81;36.64
47809;BME280;33573;38.790;-77.084;2023-06-26T00:21:04;100524.47;;;27.70;36.88
47809;BME280;33573;38.790;-77.084;2023-06-26T00:23:29;100520.27;;;27.92;36.73
47809;BME280;33573;38.790;-77.084;2023-06-26T00:25:55;100515.11;;;27.64;37.21
47809;BME280;33573;38.790;-77.084;2023-06-26T00:28:20;100516.55;;;26.73;38.21
47809;BME280;33573;38.790;-77.084;2023-06-26T00:30:45;100513.99;;;27.28;37.28
47809;BME280;33573;38.790;-77.084;2023-06-26T00:33:11;100513.98;;;27.86;36.20
47809;BME280;33573;38.790;-77.084;2023-06-26T00:35:36;100511.50;;;27.96;36.02
47809;BME280;33573;38.790;-77.084;2023-06-26T00:38:02;100514.43;;;27.69;36.42
47809;BME280;33573;38.790;-77.084;2023-06-26T00:40:27;100519.39;;;27.82;36.19
47809;BME280;33573;38.790;-77.084;2023-06-26T00:42:52;100521.69;;;27.55;36.36
47809;BME280;33573;38.790;-77.084;2023-06-26T00:45:18;100522.70;;;27.78;36.41
47809;BME280;33573;38.790;-77.084;2023-06-26T00:47:43;100520.84;;;27.82;36.46
47809;BME280;33573;38.790;-77.084;2023-06-26T00:50:08;100525.38;;;27.73;36.62
47809;BME280;33573;38.790;-77.084;2023-06-26T00:52:34;100537.00;;;27.75;36.67
47809;BME280;33573;38.790;-77.084;2023-06-26T00:54:59;100543.38;;;27.62;36.67
47809;BME280;33573;38.790;-77.084;2023-06-26T00:57:24;100547.17;;;27.06;36.08
47809;BME280;33573;38.790;-77.084;2023-06-26T00:59:50;100549.66;;;26.73;35.61
47809;BME280;33573;38.790;-77.084;2023-06-26T01:02:15;100554.19;;;27.62;34.52
47809;BME280;33573;38.790;-77.084;2023-06-26T01:04:40;100555.92;;;27.28;33.71
47809;BME280;33573;38.790;-77.084;2023-06-26T01:07:06;100563.27;;;26.76;34.57
47809;BME280;33573;38.790;-77.084;2023-06-26T01:09:32;100571.79;;;26.95;34.01
47809;BME280;33573;38.790;-77.084;2023-06-26T01:11:57;100578.33;;;27.23;34.46
47809;BME280;33573;38.790;-77.084;2023-06-26T01:14:23;100579.73;;;27.05;34.74
47809;BME280;33573;38.790;-77.084;2023-06-26T01:16:49;100582.08;;;27.00;33.94
47809;BME280;33573;38.790;-77.084;2023-06-26T01:19:15;100584.41;;;26.80;34.07
47809;BME280;33573;38.790;-77.084;2023-06-26T01:21:42;100586.11;;;26.88;31.50
47809;BME280;33573;38.790;-77.084;2023-06-26T01:24:09;100585.34;;;26.03;32.68
47809;BME280;33573;38.790;-77.084;2023-06-26T01:26:30;100592.92;;;26.06;31.84
47809;BME280;33573;38.790;-77.084;2023-06-26T01:28:56;100587.98;;;25.58;31.91
47809;BME280;33573;38.790;-77.084;2023-06-26T01:31:20;100590.84;;;25.63;31.77
47809;BME280;33573;38.790;-77.084;2023-06-26T01:33:45;100596.70;;;25.83;31.51
47809;BME280;33573;38.790;-77.084;2023-06-26T01:36:10;100599.40;;;25.77;31.97
47809;BME280;33573;38.790;-77.084;2023-06-26T01:38:36;100600.21;;;26.26;30.54
47809;BME280;33573;38.790;-77.084;2023-06-26T01:41:02;100599.34;;;25.09;31.59
47809;BME280;33573;38.790;-77.084;2023-06-26T01:43:31;100597.22;;;25.13;31.17
47809;BME280;33573;38.790;-77.084;2023-06-26T01:45:58;100598.18;;;25.42;31.15
47809;BME280;33573;38.790;-77.084;2023-06-26T01:48:23;100598.02;;;25.41;30.55
47809;BME280;33573;38.790;-77.084;2023-06-26T01:50:44;100597.87;;;25.10;30.34
47809;BME280;33573;38.790;-77.084;2023-06-26T01:53:11;100594.97;;;26.03;30.58
47809;BME280;33573;38.790;-77.084;2023-06-26T01:55:38;100595.54;;;26.29;29.36
47809;BME280;33573;38.790;-77.084;2023-06-26T01:57:59;100601.48;;;26.71;28.95
47809;BME280;33573;38.790;-77.084;2023-06-26T02:00:24;100604.25;;;26.21;29.44
47809;BME280;33573;38.790;-77.084;2023-06-26T02:02:49;100608.85;;;26.09;28.78
47809;BME280;33573;38.790;-77.084;2023-06-26T02:05:15;100608.27;;;25.93;28.33
47809;BME280;33573;38.790;-77.084;2023-06-26T02:07:40;100609.56;;;25.01;29.41
47809;BME280;33573;38.790;-77.084;2023-06-26T02:10:06;100605.49;;;24.70;29.14
47809;BME280;33573;38.790;-77.084;2023-06-26T02:12:31;100599.99;;;26.63;28.50
47809;BME280;33573;38.790;-77.084;2023-06-26T02:14:56;100596.52;;;25.86;29.47
47809;BME280;33573;38.790;-77.084;2023-06-26T02:17:21;100596.60;;;25.29;29.62
47809;BME280;33573;38.790;-77.084;2023-06-26T02:19:47;100597.27;;;24.95;30.10
47809;BME280;33573;38.790;-77.084;2023-06-26T02:22:12;100594.72;;;24.82;29.55
47809;BME280;33573;38.790;-77.084;2023-06-26T02:24:38;100597.08;;;24.72;29.73
47809;BME280;33573;38.790;-77.084;2023-06-26T02:27:03;100601.02;;;23.99;30.04
47809;BME280;33573;38.790;-77.084;2023-06-26T02:29:28;100591.56;;;24.47;29.43
47809;BME280;33573;38.790;-77.084;2023-06-26T02:31:54;100598.72;;;24.38;29.33
47809;BME280;33573;38.790;-77.084;2023-06-26T02:34:19;100602.94;;;25.29;29.03
47809;BME280;33573;38.790;-77.084;2023-06-26T02:36:44;100602.35;;;26.15;28.89
47809;BME280;33573;38.790;-77.084;2023-06-26T02:39:10;100607.90;;;25.55;29.20
47809;BME280;33573;38.790;-77.084;2023-06-26T02:41:35;100607.26;;;25.35;30.00
47809;BME280;33573;38.790;-77.084;2023-06-26T02:44:00;100606.75;;;25.41;29.08
47809;BME280;33573;38.790;-77.084;2023-06-26T02:46:26;100613.10;;;24.33;29.81
47809;BME280;33573;38.790;-77.084;2023-06-26T02:48:51;100615.47;;;24.56;29.60
47809;BME280;33573;38.790;-77.084;2023-06-26T02:51:17;100608.50;;;24.51;29.17
47809;BME280;33573;38.790;-77.084;2023-06-26T02:53:42;100598.23;;;25.28;28.95
47809;BME280;33573;38.790;-77.084;2023-06-26T02:56:07;100594.54;;;25.46;29.48
47809;BME280;33573;38.790;-77.084;2023-06-26T02:58:33;100588.98;;;25.84;29.00
47809;BME280;33573;38.790;-77.084;2023-06-26T03:00:58;100588.47;;;25.08;30.02
47809;BME280;33573;38.790;-77.084;2023-06-26T03:03:24;100581.96;;;25.83;29.94
47809;BME280;33573;38.790;-77.084;2023-06-26T03:05:49;100580.23;;;25.92;29.98
47809;BME280;33573;38.790;-77.084;2023-06-26T03:08:14;100584.21;;;25.68;30.16
47809;BME280;33573;38.790;-77.084;2023-06-26T03:10:39;100585.96;;;26.34;29.82
47809;BME280;33573;38.790;-77.084;2023-06-26T03:13:05;100577.26;;;26.91;29.61
47809;BME280;33573;38.790;-77.084;2023-06-26T03:15:30;100579.70;;;26.97;29.57
47809;BME280;33573;38.790;-77.084;2023-06-26T03:17:56;100580.83;;;24.99;31.66
47809;BME280;33573;38.790;-77.084;2023-06-26T03:20:21;100581.04;;;24.37;31.59
47809;BME280;33573;38.790;-77.084;2023-06-26T03:22:46;100584.69;;;24.30;31.20
47809;BME280;33573;38.790;-77.084;2023-06-26T03:25:12;100589.94;;;23.81;31.54
47809;BME280;33573;38.790;-77.084;2023-06-26T03:27:37;100590.35;;;25.48;30.63
47809;BME280;33573;38.790;-77.084;2023-06-26T03:30:03;100585.14;;;26.46;29.92
47809;BME280;33573;38.790;-77.084;2023-06-26T03:32:28;100586.03;;;26.63;29.32
47809;BME280;33573;38.790;-77.084;2023-06-26T03:34:53;100589.48;;;26.69;29.55
47809;BME280;33573;38.790;-77.084;2023-06-26T03:37:18;100583.97;;;26.43;30.20
47809;BME280;33573;38.790;-77.084;2023-06-26T03:39:44;100583.37;;;24.31;31.96
47809;BME280;33573;38.790;-77.084;2023-06-26T03:42:09;100586.63;;;24.22;31.59
47809;BME280;33573;38.790;-77.084;2023-06-26T03:44:35;100582.27;;;25.03;30.19
47809;BME280;33573;38.790;-77.084;2023-06-26T03:47:00;100584.83;;;24.73;30.29
47809;BME280;33573;38.790;-77.084;2023-06-26T03:49:25;100576.99;;;26.29;29.53
47809;BME280;33573;38.790;-77.084;2023-06-26T03:51:51;100575.84;;;25.39;30.52
47809;BME280;33573;38.790;-77.084;2023-06-26T03:54:16;100574.04;;;26.54;29.70
47809;BME280;33573;38.790;-77.084;2023-06-26T03:56:41;100573.14;;;26.53;29.63
47809;BME280;33573;38.790;-77.084;2023-06-26T03:59:07;100569.28;;;26.73;29.73
47809;BME280;33573;38.790;-77.084;2023-06-26T04:01:32;100567.25;;;25.49;31.44
47809;BME280;33573;38.790;-77.084;2023-06-26T04:03:59;100563.92;;;23.68;32.46
47809;BME280;33573;38.790;-77.084;2023-06-26T04:06:23;100558.36;;;24.12;31.57
47809;BME280;33573;38.790;-77.084;2023-06-26T04:08:48;100548.52;;;24.65;30.80
47809;BME280;33573;38.790;-77.084;2023-06-26T04:11:14;100536.86;;;25.24;30.70
47809;BME280;33573;38.790;-77.084;2023-06-26T04:13:39;100538.01;;;26.03;29.74
47809;BME280;33573;38.790;-77.084;2023-06-26T04:16:05;100535.24;;;26.01;30.09
47809;BME280;33573;38.790;-77.084;2023-06-26T04:18:30;100528.43;;;26.81;29.38
47809;BME280;33573;38.790;-77.084;2023-06-26T04:21:05;100525.44;;;26.54;30.06
47809;BME280;33573;38.790;-77.084;2023-06-26T04:23:20;100527.33;;;27.15;29.45
47809;BME280;33573;38.790;-77.084;2023-06-26T04:25:46;100523.30;;;25.73;30.76
47809;BME280;33573;38.790;-77.084;2023-06-26T04:28:11;100522.49;;;24.83;31.57
47809;BME280;33573;38.790;-77.084;2023-06-26T04:30:37;100521.51;;;24.00;32.32
47809;BME280;33573;38.790;-77.084;2023-06-26T04:33:02;100516.21;;;24.64;31.12
47809;BME280;33573;38.790;-77.084;2023-06-26T04:35:27;100509.09;;;25.13;30.45
47809;BME280;33573;38.790;-77.084;2023-06-26T04:37:53;100506.32;;;25.18;30.33
47809;BME280;33573;38.790;-77.084;2023-06-26T04:40:18;100506.22;;;25.90;30.58
47809;BME280;33573;38.790;-77.084;2023-06-26T04:42:43;100496.42;;;24.87;30.94
47809;BME280;33573;38.790;-77.084;2023-06-26T04:45:09;100491.03;;;26.65;29.90
47809;BME280;33573;38.790;-77.084;2023-06-26T04:47:34;100490.18;;;26.98;29.66
47809;BME280;33573;38.790;-77.084;2023-06-26T04:50:00;100488.09;;;26.36;29.93
47809;BME280;33573;38.790;-77.084;2023-06-26T04:52:25;100484.41;;;26.57;30.06
47809;BME280;33573;38.790;-77.084;2023-06-26T04:54:50;100484.23;;;26.98;29.74
47809;BME280;33573;38.790;-77.084;2023-06-26T04:57:16;100488.02;;;26.86;30.00
47809;BME280;33573;38.790;-77.084;2023-06-26T04:59:41;100484.25;;;26.96;30.11
47809;BME280;33573;38.790;-77.084;2023-06-26T05:02:06;100484.20;;;26.82;30.30
47809;BME280;33573;38.790;-77.084;2023-06-26T05:04:32;100476.56;;;26.94;30.51
47809;BME280;33573;38.790;-77.084;2023-06-26T05:06:57;100472.85;;;26.78;30.90
47809;BME280;33573;38.790;-77.084;2023-06-26T05:09:22;100471.92;;;25.07;32.17
47809;BME280;33573;38.790;-77.084;2023-06-26T05:11:48;100476.62;;;24.25;32.11
47809;BME280;33573;38.790;-77.084;2023-06-26T05:14:13;100473.10;;;25.74;31.18
47809;BME280;33573;38.790;-77.084;2023-06-26T05:16:39;100464.99;;;26.19;30.64
47809;BME280;33573;38.790;-77.084;2023-06-26T05:19:04;100458.23;;;26.31;30.42
47809;BME280;33573;38.790;-77.084;2023-06-26T05:21:30;100453.86;;;26.81;29.94
47809;BME280;33573;38.790;-77.084;2023-06-26T05:23:57;100448.95;;;26.72;29.92
47809;BME280;33573;38.790;-77.084;2023-06-26T05:26:21;100443.80;;;26.72;30.41
47809;BME280;33573;38.790;-77.084;2023-06-26T05:28:46;100444.38;;;26.67;30.24
47809;BME280;33573;38.790;-77.084;2023-06-26T05:31:11;100440.80;;;26.95;30.40
47809;BME280;33573;38.790;-77.084;2023-06-26T05:33:37;100440.00;;;26.78;30.46
47809;BME280;33573;38.790;-77.084;2023-06-26T05:36:04;100439.13;;;26.87;30.47
47809;BME280;33573;38.790;-77.084;2023-06-26T05:38:28;100431.72;;;27.13;30.77
47809;BME280;33573;38.790;-77.084;2023-06-26T05:40:53;100429.36;;;27.05;30.83
47809;BME280;33573;38.790;-77.084;2023-06-26T05:43:18;100428.11;;;27.04;30.92
47809;BME280;33573;38.790;-77.084;2023-06-26T05:45:43;100426.18;;;27.11;30.93
47809;BME280;33573;38.790;-77.084;2023-06-26T05:48:08;100417.34;;;26.73;31.25
47809;BME280;33573;38.790;-77.084;2023-06-26T05:50:35;100415.55;;;26.90;31.41
47809;BME280;33573;38.790;-77.084;2023-06-26T05:53:00;100410.02;;;26.90;31.47
47809;BME280;33573;38.790;-77.084;2023-06-26T05:55:25;100409.81;;;27.10;31.45
47809;BME280;33573;38.790;-77.084;2023-06-26T05:57:51;100407.00;;;26.73;31.90
47809;BME280;33573;38.790;-77.084;2023-06-26T06:00:16;100407.62;;;26.88;31.76
47809;BME280;33573;38.790;-77.084;2023-06-26T06:02:42;100407.67;;;26.56;31.94
47809;BME280;33573;38.790;-77.084;2023-06-26T06:05:07;100408.65;;;26.74;31.80
47809;BME280;33573;38.790;-77.084;2023-06-26T06:07:32;100407.52;;;26.72;32.24
47809;BME280;33573;38.790;-77.084;2023-06-26T06:09:57;100407.38;;;25.30;33.36
47809;BME280;33573;38.790;-77.084;2023-06-26T06:12:22;100399.48;;;24.80;33.39
47809;BME280;33573;38.790;-77.084;2023-06-26T06:14:48;100392.55;;;25.55;32.16
47809;BME280;33573;38.790;-77.084;2023-06-26T06:17:13;100384.29;;;26.05;31.30
47809;BME280;33573;38.790;-77.084;2023-06-26T06:19:39;100381.46;;;25.44;31.63
47809;BME280;33573;38.790;-77.084;2023-06-26T06:22:04;100388.96;;;25.45;32.29
47809;BME280;33573;38.790;-77.084;2023-06-26T06:24:29;100380.73;;;25.90;31.81
47809;BME280;33573;38.790;-77.084;2023-06-26T06:26:55;100385.16;;;26.38;31.56
47809;BME280;33573;38.790;-77.084;2023-06-26T06:29:20;100384.72;;;26.67;31.17
47809;BME280;33573;38.790;-77.084;2023-06-26T06:31:45;100387.65;;;26.85;31.01
47809;BME280;33573;38.790;-77.084;2023-06-26T06:34:11;100386.19;;;26.96;31.24
47809;BME280;33573;38.790;-77.084;2023-06-26T06:36:36;100389.42;;;26.72;31.45
47809;BME280;33573;38.790;-77.084;2023-06-26T06:39:02;100388.34;;;26.69;31.29
47809;BME280;33573;38.790;-77.084;2023-06-26T06:41:28;100386.78;;;26.69;31.75
47809;BME280;33573;38.790;-77.084;2023-06-26T06:43:52;100386.58;;;26.96;31.39
47809;BME280;33573;38.790;-77.084;2023-06-26T06:46:18;100392.04;;;27.07;31.34
47809;BME280;33573;38.790;-77.084;2023-06-26T06:48:43;100389.61;;;26.78;31.42
47809;BME280;33573;38.790;-77.084;2023-06-26T06:51:09;100385.33;;;26.81;31.82
47809;BME280;33573;38.790;-77.084;2023-06-26T06:53:34;100387.57;;;26.37;32.47
47809;BME280;33573;38.790;-77.084;2023-06-26T06:55:59;100388.95;;;26.97;32.06
47809;BME280;33573;38.790;-77.084;2023-06-26T06:58:25;100386.40;;;27.13;31.94
47809;BME280;33573;38.790;-77.084;2023-06-26T07:00:50;100382.25;;;26.84;32.13
47809;BME280;33573;38.790;-77.084;2023-06-26T07:03:16;100377.73;;;27.14;32.10
47809;BME280;33573;38.790;-77.084;2023-06-26T07:05:42;100372.62;;;26.88;32.55
47809;BME280;33573;38.790;-77.084;2023-06-26T07:08:06;100372.57;;;27.13;32.21
47809;BME280;33573;38.790;-77.084;2023-06-26T07:10:32;100375.60;;;26.94;32.53
47809;BME280;33573;38.790;-77.084;2023-06-26T07:12:57;100374.86;;;27.23;32.22
47809;BME280;33573;38.790;-77.084;2023-06-26T07:15:22;100369.71;;;26.77;32.30
47809;BME280;33573;38.790;-77.084;2023-06-26T07:17:48;100365.07;;;27.17;32.45
47809;BME280;33573;38.790;-77.084;2023-06-26T07:20:13;100363.55;;;27.20;32.46
47809;BME280;33573;38.790;-77.084;2023-06-26T07:22:39;100362.68;;;26.88;32.68
47809;BME280;33573;38.790;-77.084;2023-06-26T07:25:05;100365.22;;;26.70;32.95
47809;BME280;33573;38.790;-77.084;2023-06-26T07:27:29;100370.94;;;26.98;32.94
47809;BME280;33573;38.790;-77.084;2023-06-26T07:29:55;100364.95;;;26.69;33.40
47809;BME280;33573;38.790;-77.084;2023-06-26T07:32:20;100362.73;;;26.69;33.44
47809;BME280;33573;38.790;-77.084;2023-06-26T07:34:46;100368.33;;;27.07;32.71
47809;BME280;33573;38.790;-77.084;2023-06-26T07:37:11;100371.45;;;27.42;32.59
47809;BME280;33573;38.790;-77.084;2023-06-26T07:39:36;100374.26;;;26.93;33.31
47809;BME280;33573;38.790;-77.084;2023-06-26T07:42:02;100370.26;;;27.07;33.16
47809;BME280;33573;38.790;-77.084;2023-06-26T07:44:27;100372.85;;;27.33;32.90
47809;BME280;33573;38.790;-77.084;2023-06-26T07:46:53;100373.69;;;26.94;33.07
47809;BME280;33573;38.790;-77.084;2023-06-26T07:49:18;100368.40;;;26.76;33.30
47809;BME280;33573;38.790;-77.084;2023-06-26T07:51:43;100365.23;;;27.15;33.16
47809;BME280;33573;38.790;-77.084;2023-06-26T07:54:09;100361.14;;;26.90;33.26
47809;BME280;33573;38.790;-77.084;2023-06-26T07:58:59;100358.25;;;27.00;33.59
47809;BME280;33573;38.790;-77.084;2023-06-26T08:01:25;100353.47;;;24.96;35.01
47809;BME280;33573;38.790;-77.084;2023-06-26T08:03:50;100353.10;;;24.99;34.51
47809;BME280;33573;38.790;-77.084;2023-06-26T08:06:16;100355.76;;;26.54;32.77
47809;BME280;33573;38.790;-77.084;2023-06-26T08:08:41;100349.61;;;26.05;32.85
47809;BME280;33573;38.790;-77.084;2023-06-26T08:11:06;100355.55;;;26.04;33.02
47809;BME280;33573;38.790;-77.084;2023-06-26T08:13:32;100361.11;;;26.81;32.17
47809;BME280;33573;38.790;-77.084;2023-06-26T08:15:57;100364.54;;;26.74;32.33
47809;BME280;33573;38.790;-77.084;2023-06-26T08:18:23;100372.22;;;26.79;32.41
47809;BME280;33573;38.790;-77.084;2023-06-26T08:20:48;100371.30;;;25.99;33.77
47809;BME280;33573;38.790;-77.084;2023-06-26T08:23:13;100373.04;;;26.51;33.33
47809;BME280;33573;38.790;-77.084;2023-06-26T08:25:39;100372.73;;;26.16;33.58
47809;BME280;33573;38.790;-77.084;2023-06-26T08:28:04;100372.40;;;26.41;32.97
47809;BME280;33573;38.790;-77.084;2023-06-26T08:30:31;100374.34;;;26.56;33.15
47809;BME280;33573;38.790;-77.084;2023-06-26T08:32:55;100374.45;;;26.76;32.97
47809;BME280;33573;38.790;-77.084;2023-06-26T08:35:20;100373.23;;;27.03;33.07
47809;BME280;33573;38.790;-77.084;2023-06-26T08:37:46;100370.26;;;26.73;33.11
47809;BME280;33573;38.790;-77.084;2023-06-26T08:40:12;100368.08;;;26.78;33.43
47809;BME280;33573;38.790;-77.084;2023-06-26T08:42:37;100359.03;;;26.96;33.30
47809;BME280;33573;38.790;-77.084;2023-06-26T08:45:02;100351.13;;;26.49;33.71
47809;BME280;33573;38.790;-77.084;2023-06-26T08:47:27;100347.16;;;26.35;33.94
47809;BME280;33573;38.790;-77.084;2023-06-26T08:49:59;100342.90;;;26.73;33.52
47809;BME280;33573;38.790;-77.084;2023-06-26T08:52:22;100334.16;;;26.87;33.31
47809;BME280;33573;38.790;-77.084;2023-06-26T08:54:46;100327.22;;;26.93;33.26
47809;BME280;33573;38.790;-77.084;2023-06-26T08:57:09;100321.88;;;26.54;33.56
47809;BME280;33573;38.790;-77.084;2023-06-26T08:59:35;100319.50;;;26.92;33.48
47809;BME280;33573;38.790;-77.084;2023-06-26T09:02:00;100323.83;;;27.10;33.59
47809;BME280;33573;38.790;-77.084;2023-06-26T09:04:25;100326.12;;;26.77;33.77
47809;BME280;33573;38.790;-77.084;2023-06-26T09:06:51;100328.50;;;26.18;34.51
47809;BME280;33573;38.790;-77.084;2023-06-26T09:09:16;100332.17;;;27.00;33.81
47809;BME280;33573;38.790;-77.084;2023-06-26T09:11:41;100325.59;;;26.86;33.78
47809;BME280;33573;38.790;-77.084;2023-06-26T09:14:07;100320.02;;;26.58;33.85
47809;BME280;33573;38.790;-77.084;2023-06-26T09:16:33;100316.82;;;26.22;34.70
47809;BME280;33573;38.790;-77.084;2023-06-26T09:18:58;100319.91;;;26.75;34.03
47809;BME280;33573;38.790;-77.084;2023-06-26T09:21:23;100320.89;;;26.68;34.17
47809;BME280;33573;38.790;-77.084;2023-06-26T09:23:49;100315.82;;;26.84;34.31
47809;BME280;33573;38.790;-77.084;2023-06-26T09:26:15;100313.48;;;26.43;34.57
47809;BME280;33573;38.790;-77.084;2023-06-26T09:28:39;100308.62;;;26.95;34.22
47809;BME280;33573;38.790;-77.084;2023-06-26T09:31:07;100310.16;;;26.48;34.26
47809;BME280;33573;38.790;-77.084;2023-06-26T09:33:33;100311.52;;;26.94;33.99
47809;BME280;33573;38.790;-77.084;2023-06-26T09:35:55;100318.70;;;26.90;34.16
47809;BME280;33573;38.790;-77.084;2023-06-26T09:38:21;100322.73;;;26.90;34.58
47809;BME280;33573;38.790;-77.084;2023-06-26T09:40:46;100329.43;;;26.65;34.65
47809;BME280;33573;38.790;-77.084;2023-06-26T09:43:13;100333.26;;;26.37;35.37
47809;BME280;33573;38.790;-77.084;2023-06-26T09:45:37;100337.63;;;26.85;34.44
47809;BME280;33573;38.790;-77.084;2023-06-26T09:48:02;100339.76;;;26.59;35.19
47809;BME280;33573;38.790;-77.084;2023-06-26T09:50:28;100337.36;;;27.01;34.32
47809;BME280;33573;38.790;-77.084;2023-06-26T09:52:53;100336.70;;;26.87;34.53
47809;BME280;33573;38.790;-77.084;2023-06-26T09:55:20;100331.80;;;26.89;34.55
47809;BME280;33573;38.790;-77.084;2023-06-26T09:57:44;100324.52;;;26.80;34.71
47809;BME280;33573;38.790;-77.084;2023-06-26T10:00:11;100319.66;;;26.98;34.55
47809;BME280;33573;38.790;-77.084;2023-06-26T10:02:34;100312.38;;;25.97;35.60
47809;BME280;33573;38.790;-77.084;2023-06-26T10:05:00;100310.75;;;26.94;34.81
47809;BME280;33573;38.790;-77.084;2023-06-26T10:07:26;100307.11;;;27.21;34.75
47809;BME280;33573;38.790;-77.084;2023-06-26T10:09:51;100305.70;;;27.01;35.06
47809;BME280;33573;38.790;-77.084;2023-06-26T10:12:19;100305.31;;;26.70;35.19
47809;BME280;33573;38.790;-77.084;2023-06-26T10:14:42;100305.04;;;26.73;34.87
47809;BME280;33573;38.790;-77.084;2023-06-26T10:17:10;100309.98;;;26.49;35.17
47809;BME280;33573;38.790;-77.084;2023-06-26T10:19:33;100310.69;;;26.24;35.66
47809;BME280;33573;38.790;-77.084;2023-06-26T10:21:59;100307.40;;;26.56;35.39
47809;BME280;33573;38.790;-77.084;2023-06-26T10:24:23;100300.89;;;26.83;35.31
47809;BME280;33573;38.790;-77.084;2023-06-26T10:26:52;100310.06;;;26.68;35.60
47809;BME280;33573;38.790;-77.084;2023-06-26T10:29:15;100316.23;;;26.80;35.41
47809;BME280;33573;38.790;-77.084;2023-06-26T10:31:40;100319.33;;;26.64;35.70
47809;BME280;33573;38.790;-77.084;2023-06-26T10:34:05;100315.69;;;26.88;35.03
47809;BME280;33573;38.790;-77.084;2023-06-26T10:36:31;100312.81;;;27.33;34.78
47809;BME280;33573;38.790;-77.084;2023-06-26T10:38:57;100307.57;;;27.04;35.16
47809;BME280;33573;38.790;-77.084;2023-06-26T10:41:22;100306.84;;;27.05;35.14
47809;BME280;33573;38.790;-77.084;2023-06-26T10:43:49;100302.13;;;26.68;35.67
47809;BME280;33573;38.790;-77.084;2023-06-26T10:46:12;100300.48;;;26.62;36.11
47809;BME280;33573;38.790;-77.084;2023-06-26T10:53:28;100310.46;;;26.88;35.53
47809;BME280;33573;38.790;-77.084;2023-06-26T10:55:57;100309.81;;;26.59;35.60
47809;BME280;33573;38.790;-77.084;2023-06-26T10:58:29;100313.73;;;26.79;35.30
47809;BME280;33573;38.790;-77.084;2023-06-26T11:00:49;100320.80;;;26.61;36.37
47809;BME280;33573;38.790;-77.084;2023-06-26T11:05:35;100328.62;;;26.59;36.36
47809;BME280;33573;38.790;-77.084;2023-06-26T11:08:05;100323.95;;;26.94;35.95
47809;BME280;33573;38.790;-77.084;2023-06-26T11:10:26;100321.60;;;26.98;35.72
47809;BME280;33573;38.790;-77.084;2023-06-26T11:12:54;100319.37;;;26.87;36.08
47809;BME280;33573;38.790;-77.084;2023-06-26T11:15:18;100323.92;;;26.25;36.42
47809;BME280;33573;38.790;-77.084;2023-06-26T11:17:43;100332.93;;;26.77;36.31
47809;BME280;33573;38.790;-77.084;2023-06-26T11:20:09;100339.94;;;27.19;36.08
47809;BME280;33573;38.790;-77.084;2023-06-26T11:22:35;100350.77;;;27.06;35.76
47809;BME280;33573;38.790;-77.084;2023-06-26T11:25:00;100361.71;;;26.77;35.91
47809;BME280;33573;38.790;-77.084;2023-06-26T11:27:24;100366.75;;;26.86;36.25
47809;BME280;33573;38.790;-77.084;2023-06-26T11:29:49;100365.41;;;27.03;36.18
47809;BME280;33573;38.790;-77.084;2023-06-26T11:32:14;100368.52;;;26.79;36.55
47809;BME280;33573;38.790;-77.084;2023-06-26T11:34:40;100375.70;;;26.70;36.18
47809;BME280;33573;38.790;-77.084;2023-06-26T11:37:05;100377.43;;;26.93;36.29
47809;BME280;33573;38.790;-77.084;2023-06-26T11:39:30;100380.63;;;27.21;36.19
47809;BME280;33573;38.790;-77.084;2023-06-26T11:41:56;100385.04;;;26.91;36.36
47809;BME280;33573;38.790;-77.084;2023-06-26T11:44:21;100386.46;;;26.97;36.39
47809;BME280;33573;38.790;-77.084;2023-06-26T11:46:47;100380.80;;;26.86;36.75
47809;BME280;33573;38.790;-77.084;2023-06-26T11:49:12;100379.35;;;26.74;36.38
47809;BME280;33573;38.790;-77.084;2023-06-26T11:51:37;100381.45;;;27.24;36.50
47809;BME280;33573;38.790;-77.084;2023-06-26T11:54:04;100383.69;;;27.44;36.50
47809;BME280;33573;38.790;-77.084;2023-06-26T11:56:29;100378.98;;;26.55;37.12
47809;BME280;33573;38.790;-77.084;2023-06-26T11:58:58;100382.34;;;26.37;37.40
47809;BME280;33573;38.790;-77.084;2023-06-26T12:01:19;100387.03;;;26.75;36.99
47809;BME280;33573;38.790;-77.084;2023-06-26T12:03:44;100389.14;;;27.30;36.54
47809;BME280;33573;38.790;-77.084;2023-06-26T12:06:10;100395.04;;;27.01;36.73
47809;BME280;33573;38.790;-77.084;2023-06-26T12:08:35;100400.11;;;27.11;37.05
47809;BME280;33573;38.790;-77.084;2023-06-26T12:11:01;100398.51;;;26.94;36.82
47809;BME280;33573;38.790;-77.084;2023-06-26T12:13:26;100400.78;;;26.66;37.39
47809;BME280;33573;38.790;-77.084;2023-06-26T12:15:51;100397.11;;;27.12;37.05
47809;BME280;33573;38.790;-77.084;2023-06-26T12:18:16;100397.13;;;26.62;37.53
47809;BME280;33573;38.790;-77.084;2023-06-26T12:20:42;100398.05;;;26.41;38.14
47809;BME280;33573;38.790;-77.084;2023-06-26T12:23:12;100395.43;;;26.58;37.17
47809;BME280;33573;38.790;-77.084;2023-06-26T12:25:33;100398.59;;;27.37;36.83
47809;BME280;33573;38.790;-77.084;2023-06-26T12:27:58;100403.99;;;27.02;36.86
47809;BME280;33573;38.790;-77.084;2023-06-26T12:30:23;100401.76;;;26.70;37.89